createdAt,value
2019-01-20T00:00:15.315Z,87.30
2019-01-20T00:02:47.858Z,87.30
2019-01-20T00:05:20.718Z,87.20
2019-01-20T00:07:53.255Z,87.50
2019-01-20T00:10:25.828Z,87.10
2019-01-20T00:12:58.251Z,87.70
2019-01-20T00:15:30.727Z,87.70
2019-01-20T00:18:03.253Z,88.00
2019-01-20T00:20:35.724Z,87.70
2019-01-20T00:23:08.264Z,87.30
2019-01-20T00:25:40.733Z,87.40
2019-01-20T00:28:13.366Z,87.10
2019-01-20T00:30:45.749Z,86.90
2019-01-20T00:33:18.083Z,86.20
2019-01-20T00:35:50.469Z,85.60
2019-01-20T00:38:23.147Z,85.20
2019-01-20T00:40:56.451Z,85.20
2019-01-20T00:43:28.934Z,85.60
2019-01-20T00:46:01.696Z,86.10
2019-01-20T00:48:34.063Z,86.70
2019-01-20T00:51:06.737Z,87.00
2019-01-20T00:53:39.211Z,87.20
2019-01-20T00:56:11.836Z,87.30
2019-01-20T00:58:44.215Z,87.30
2019-01-20T01:01:16.809Z,86.80
2019-01-20T01:03:49.282Z,86.40
2019-01-20T01:06:22.165Z,86.00
2019-01-20T01:08:54.653Z,85.70
2019-01-20T01:11:31.591Z,86.00
2019-01-20T01:14:01.349Z,85.70
2019-01-20T01:16:33.831Z,85.30
2019-01-20T01:19:06.406Z,85.30
2019-01-20T01:21:39.602Z,85.30
2019-01-20T01:24:12.074Z,86.10
2019-01-20T01:26:44.552Z,86.50
2019-01-20T01:29:17.028Z,86.70
2019-01-20T01:31:49.407Z,86.70
2019-01-20T01:34:21.864Z,86.00
2019-01-20T01:36:54.358Z,86.40
2019-01-20T01:39:26.933Z,86.50
2019-01-20T01:41:59.318Z,86.50
2019-01-20T01:44:31.700Z,86.00
2019-01-20T01:47:04.181Z,86.00
2019-01-20T01:49:36.658Z,86.30
2019-01-20T01:52:09.340Z,86.50
2019-01-20T01:54:41.872Z,86.40
2019-01-20T01:57:14.351Z,86.10
2019-01-20T01:59:46.828Z,85.10
2019-01-20T02:02:19.422Z,85.10
2019-01-20T02:04:51.788Z,85.10
2019-01-20T02:07:24.359Z,85.70
2019-01-20T02:09:56.841Z,86.10
2019-01-20T02:12:29.418Z,86.50
2019-01-20T02:15:01.998Z,87.00
2019-01-20T02:17:34.471Z,86.90
2019-01-20T02:20:09.168Z,86.80
2019-01-20T02:22:41.745Z,86.90
2019-01-20T02:25:15.726Z,87.00
2019-01-20T02:27:48.402Z,87.10
2019-01-20T02:30:24.601Z,86.90
2019-01-20T02:32:57.067Z,86.80
2019-01-20T02:35:29.745Z,86.30
2019-01-20T02:38:02.228Z,85.20
2019-01-20T02:40:34.801Z,85.10
2019-01-20T02:43:07.380Z,85.20
2019-01-20T02:45:39.746Z,85.70
2019-01-20T02:48:12.226Z,86.10
2019-01-20T02:50:44.803Z,86.30
2019-01-20T02:53:17.293Z,86.30
2019-01-20T02:55:49.773Z,86.70
2019-01-20T02:58:22.256Z,87.40
2019-01-20T03:00:54.739Z,87.80
2019-01-20T03:03:27.227Z,88.10
2019-01-20T03:05:59.702Z,87.50
2019-01-20T03:08:32.171Z,87.80
2019-01-20T03:11:04.646Z,88.50
2019-01-20T03:13:37.135Z,88.50
2019-01-20T03:16:09.817Z,88.50
2019-01-20T03:18:42.400Z,88.60
2019-01-20T03:21:14.872Z,88.50
2019-01-20T03:23:47.252Z,88.90
2019-01-20T03:26:19.720Z,89.30
2019-01-20T03:28:52.192Z,89.20
2019-01-20T03:31:24.669Z,89.40
2019-01-20T03:33:57.185Z,90.00
2019-01-20T03:36:29.763Z,89.80
2019-01-20T03:39:02.255Z,89.80
2019-01-20T03:41:34.632Z,90.00
2019-01-20T03:44:07.783Z,90.20
2019-01-20T03:46:40.194Z,90.60
2019-01-20T03:49:12.670Z,90.80
2019-01-20T03:51:45.138Z,90.90
2019-01-20T03:54:17.717Z,90.70
2019-01-20T03:56:50.347Z,90.90
2019-01-20T03:59:22.913Z,91.00
2019-01-20T04:01:55.481Z,91.20
2019-01-20T04:04:27.864Z,91.10
2019-01-20T04:07:00.335Z,90.90
2019-01-20T04:09:32.811Z,90.80
2019-01-20T04:12:05.306Z,91.20
2019-01-20T04:14:37.686Z,91.40
2019-01-20T04:17:10.156Z,90.80
2019-01-20T04:19:42.532Z,90.80
2019-01-20T04:22:14.901Z,90.70
2019-01-20T04:24:47.283Z,90.90
2019-01-20T04:27:19.710Z,91.00
2019-01-20T04:29:52.037Z,91.10
2019-01-20T04:32:24.405Z,90.90
2019-01-20T04:34:56.768Z,90.90
2019-01-20T04:37:29.138Z,90.90
2019-01-20T04:40:01.724Z,90.90
2019-01-20T04:42:34.209Z,90.90
2019-01-20T04:45:08.908Z,90.90
2019-01-20T04:47:41.488Z,91.00
2019-01-20T04:50:17.366Z,91.20
2019-01-20T04:52:49.974Z,91.20
2019-01-20T04:55:22.572Z,91.30
2019-01-20T04:57:55.872Z,91.30
2019-01-20T05:00:29.930Z,91.70
2019-01-20T05:03:02.500Z,91.80
2019-01-20T05:05:34.874Z,91.80
2019-01-20T05:08:07.649Z,91.80
2019-01-20T05:10:40.218Z,91.70
2019-01-20T05:13:12.607Z,91.50
2019-01-20T05:15:45.090Z,91.40
2019-01-20T05:18:17.464Z,91.40
2019-01-20T05:20:50.088Z,91.10
2019-01-20T05:23:22.562Z,91.10
2019-01-20T05:25:55.042Z,91.00
2019-01-20T05:28:27.428Z,90.90
2019-01-20T05:30:59.909Z,91.10
2019-01-20T05:33:32.278Z,91.30
2019-01-20T05:36:04.857Z,91.40
2019-01-20T05:38:37.340Z,91.40
2019-01-20T05:41:09.725Z,91.30
2019-01-20T05:43:42.204Z,91.10
2019-01-20T05:46:14.695Z,91.10
2019-01-20T05:48:47.051Z,91.20
2019-01-20T05:51:19.433Z,91.10
2019-01-20T05:53:51.915Z,91.50
2019-01-20T05:56:24.281Z,91.90
2019-01-20T05:58:56.653Z,92.10
2019-01-20T06:01:29.259Z,92.30
2019-01-20T06:04:01.636Z,92.40
2019-01-20T06:06:34.125Z,92.10
2019-01-20T06:09:09.109Z,91.80
2019-01-20T06:11:41.578Z,91.70
2019-01-20T06:14:13.965Z,92.10
2019-01-20T06:16:46.444Z,92.50
2019-01-20T06:19:18.782Z,92.60
2019-01-20T06:21:51.262Z,92.50
2019-01-20T06:24:23.591Z,92.30
2019-01-20T06:26:56.086Z,91.90
2019-01-20T06:29:28.463Z,91.60
2019-01-20T06:32:00.845Z,91.40
2019-01-20T06:34:33.227Z,91.80
2019-01-20T06:37:05.724Z,91.90
2019-01-20T06:39:38.300Z,91.60
2019-01-20T06:42:10.785Z,91.00
2019-01-20T06:44:43.173Z,90.80
2019-01-20T06:47:15.654Z,90.80
2019-01-20T06:49:48.128Z,91.00
2019-01-20T06:52:20.501Z,91.40
2019-01-20T06:54:52.933Z,91.50
2019-01-20T06:57:25.418Z,91.00
2019-01-20T06:59:57.791Z,90.30
2019-01-20T07:02:30.276Z,89.50
2019-01-20T07:05:02.657Z,90.20
2019-01-20T07:07:35.138Z,90.00
2019-01-20T07:10:08.734Z,88.00
2019-01-20T07:12:41.115Z,87.00
2019-01-20T07:15:17.365Z,86.50
2019-01-20T07:17:50.040Z,85.90
2019-01-20T07:20:22.842Z,84.30
2019-01-20T07:22:55.319Z,83.20
2019-01-20T07:25:27.760Z,81.20
2019-01-20T07:28:00.232Z,79.60
2019-01-20T07:30:32.717Z,78.70
2019-01-20T07:33:05.888Z,77.20
2019-01-20T07:35:38.367Z,77.70
2019-01-20T07:38:10.856Z,78.70
2019-01-20T07:40:43.230Z,77.90
2019-01-20T07:43:17.078Z,71.70
2019-01-20T07:45:49.615Z,66.30
2019-01-20T07:48:22.091Z,65.00
2019-01-20T07:50:54.466Z,65.80
2019-01-20T07:53:27.043Z,65.00
2019-01-20T07:55:59.622Z,66.50
2019-01-20T07:58:32.198Z,69.60
2019-01-20T08:01:04.737Z,72.40
2019-01-20T08:03:37.323Z,74.60
2019-01-20T08:06:09.818Z,76.00
2019-01-20T08:08:42.305Z,77.50
2019-01-20T08:11:14.682Z,78.50
2019-01-20T08:13:47.079Z,77.50
2019-01-20T08:16:19.749Z,76.70
2019-01-20T08:18:52.140Z,75.70
2019-01-20T08:21:24.513Z,72.90
2019-01-20T08:23:56.991Z,71.50
2019-01-20T08:26:29.463Z,69.10
2019-01-20T08:29:01.748Z,63.90
2019-01-20T08:31:34.089Z,57.10
2019-01-20T08:34:06.514Z,51.10
2019-01-20T08:36:38.827Z,47.60
2019-01-20T08:39:13.972Z,44.20
2019-01-20T08:41:46.808Z,40.40
2019-01-20T08:44:19.282Z,37.60
2019-01-20T08:47:19.117Z,34.70
2019-01-20T08:49:55.391Z,33.50
2019-01-20T08:52:34.385Z,32.60
2019-01-20T08:55:12.249Z,33.40
2019-01-20T08:57:47.456Z,36.40
2019-01-20T09:00:20.508Z,39.30
2019-01-20T09:02:52.746Z,42.90
2019-01-20T09:05:25.184Z,44.50
2019-01-20T09:07:57.538Z,46.00
2019-01-20T09:10:30.654Z,47.30
2019-01-20T09:13:07.904Z,48.40
2019-01-20T09:15:40.764Z,50.10
2019-01-20T09:18:13.350Z,50.40
2019-01-20T09:20:45.794Z,51.20
2019-01-20T09:23:18.239Z,52.40
2019-01-20T09:25:50.706Z,53.00
2019-01-20T09:28:29.772Z,54.60
2019-01-20T09:31:02.460Z,57.30
2019-01-20T09:33:34.793Z,60.00
2019-01-20T09:36:07.633Z,63.30
2019-01-20T09:38:40.180Z,65.00
2019-01-20T09:41:12.673Z,66.90
2019-01-20T09:43:47.404Z,69.60
2019-01-20T09:46:19.047Z,71.10
2019-01-20T09:48:51.427Z,73.20
2019-01-20T09:51:23.826Z,73.50
2019-01-20T09:53:56.498Z,75.30
2019-01-20T09:56:28.913Z,75.50
2019-01-20T09:59:01.494Z,75.30
2019-01-20T10:01:34.128Z,76.50
2019-01-20T10:04:06.808Z,75.50
2019-01-20T10:06:39.389Z,75.80
2019-01-20T10:09:11.992Z,75.60
2019-01-20T10:11:44.386Z,75.30
2019-01-20T10:14:17.016Z,76.30
2019-01-20T10:16:49.453Z,76.00
2019-01-20T10:19:21.989Z,75.20
2019-01-20T10:21:54.472Z,75.50
2019-01-20T10:24:26.933Z,76.30
2019-01-20T10:26:59.427Z,75.60
2019-01-20T10:29:31.831Z,75.10
2019-01-20T10:32:04.317Z,74.80
2019-01-20T10:34:36.982Z,75.50
2019-01-20T10:37:09.663Z,74.30
2019-01-20T10:39:42.137Z,74.90
2019-01-20T10:42:14.723Z,74.80
2019-01-20T10:44:47.204Z,74.90
2019-01-20T10:47:19.586Z,72.30
2019-01-20T10:49:51.954Z,74.40
2019-01-20T10:52:24.827Z,73.40
2019-01-20T10:54:57.341Z,71.90
2019-01-20T10:57:30.192Z,70.70
2019-01-20T11:00:02.753Z,70.70
2019-01-20T11:02:35.170Z,70.70
2019-01-20T11:05:08.161Z,69.80
2019-01-20T11:07:40.485Z,69.20
2019-01-20T11:10:13.230Z,69.50
2019-01-20T11:12:45.676Z,69.30
2019-01-20T11:15:18.424Z,68.80
2019-01-20T11:17:50.829Z,67.70
2019-01-20T11:20:23.610Z,67.40
2019-01-20T11:22:55.929Z,66.30
2019-01-20T11:25:32.278Z,65.20
2019-01-20T11:28:04.972Z,64.30
2019-01-20T11:30:37.706Z,65.20
2019-01-20T11:33:10.222Z,66.20
2019-01-20T11:35:42.535Z,64.60
2019-01-20T11:38:14.755Z,65.30
2019-01-20T11:40:46.963Z,64.60
2019-01-20T11:43:19.175Z,64.20
2019-01-20T11:45:51.821Z,63.20
2019-01-20T11:48:24.359Z,62.60
2019-01-20T11:50:56.563Z,63.20
2019-01-20T11:53:28.874Z,62.80
2019-01-20T11:56:01.081Z,61.40
2019-01-20T11:58:33.294Z,61.20
2019-01-20T12:01:05.711Z,59.90
2019-01-20T12:03:38.120Z,59.30
2019-01-20T12:06:10.533Z,59.90
2019-01-20T12:08:42.849Z,60.00
2019-01-20T12:11:15.285Z,60.60
2019-01-20T12:13:47.603Z,60.30
2019-01-20T12:16:19.936Z,59.70
2019-01-20T12:18:52.145Z,57.30
2019-01-20T12:21:24.465Z,55.00
2019-01-20T12:23:56.964Z,52.80
2019-01-20T12:26:29.370Z,51.80
2019-01-20T12:29:01.584Z,52.00
2019-01-20T12:31:33.793Z,50.90
2019-01-20T12:34:06.306Z,50.70
2019-01-20T12:36:38.635Z,51.50
2019-01-20T12:39:11.244Z,52.90
2019-01-20T12:41:43.507Z,54.00
2019-01-20T12:44:15.718Z,53.60
2019-01-20T12:46:48.117Z,51.20
2019-01-20T12:49:20.591Z,47.80
2019-01-20T12:51:52.903Z,45.50
2019-01-20T12:54:25.518Z,42.10
2019-01-20T12:56:58.084Z,42.00
2019-01-20T12:59:30.693Z,38.70
2019-01-20T13:02:03.015Z,37.60
2019-01-20T13:04:35.491Z,37.20
2019-01-20T13:07:08.011Z,39.30
2019-01-20T13:09:40.649Z,40.80
2019-01-20T13:12:13.076Z,42.30
2019-01-20T13:14:45.441Z,43.20
2019-01-20T13:17:17.959Z,41.60
2019-01-20T13:19:50.432Z,40.70
2019-01-20T13:22:22.857Z,40.30
2019-01-20T13:24:55.330Z,39.30
2019-01-20T13:27:27.755Z,37.60
2019-01-20T13:30:00.287Z,37.80
2019-01-20T13:32:32.819Z,36.70
2019-01-20T13:35:05.871Z,37.00
2019-01-20T13:37:39.478Z,36.50
2019-01-20T13:40:16.966Z,38.30
2019-01-20T13:42:49.208Z,39.70
2019-01-20T13:45:21.756Z,40.50
2019-01-20T13:47:54.120Z,40.40
2019-01-20T13:50:26.702Z,40.80
2019-01-20T13:52:59.257Z,40.90
2019-01-20T13:55:31.731Z,40.60
2019-01-20T13:58:04.096Z,40.50
2019-01-20T14:00:36.718Z,40.70
2019-01-20T14:03:09.280Z,40.10
2019-01-20T14:05:41.588Z,40.60
2019-01-20T14:08:13.901Z,40.80
2019-01-20T14:10:46.316Z,41.50
2019-01-20T14:13:18.529Z,42.40
2019-01-20T14:15:50.945Z,45.30
2019-01-20T14:18:23.151Z,47.80
2019-01-20T14:20:55.365Z,49.90
2019-01-20T14:23:27.686Z,53.10
2019-01-20T14:25:59.899Z,54.50
2019-01-20T14:28:32.110Z,56.30
2019-01-20T14:31:04.517Z,58.90
2019-01-20T14:33:36.940Z,59.20
2019-01-20T14:36:09.454Z,61.50
2019-01-20T14:38:41.654Z,61.70
2019-01-20T14:41:14.069Z,62.60
2019-01-20T14:43:46.390Z,64.40
2019-01-20T14:46:18.607Z,66.00
2019-01-20T14:48:50.952Z,67.20
2019-01-20T14:51:23.378Z,68.00
2019-01-20T14:53:56.047Z,68.70
2019-01-20T14:56:28.566Z,69.10
2019-01-20T14:59:01.072Z,69.90
2019-01-20T15:01:33.649Z,69.60
2019-01-20T15:04:06.438Z,70.10
2019-01-20T15:06:38.815Z,70.80
2019-01-20T15:09:11.610Z,71.60
2019-01-20T15:11:43.991Z,71.20
2019-01-20T15:14:16.469Z,72.10
2019-01-20T15:16:48.845Z,73.40
2019-01-20T15:19:21.889Z,74.30
2019-01-20T15:21:54.415Z,75.00
2019-01-20T15:24:31.218Z,75.00
2019-01-20T15:27:00.939Z,76.70
2019-01-20T15:29:33.620Z,77.30
2019-01-20T15:32:06.505Z,76.80
2019-01-20T15:34:38.999Z,77.60
2019-01-20T15:37:11.488Z,78.00
2019-01-20T15:39:43.993Z,78.90
2019-01-20T15:42:16.378Z,79.30
2019-01-20T15:44:48.755Z,79.00
2019-01-20T15:47:21.239Z,80.00
2019-01-20T15:49:53.824Z,80.70
2019-01-20T15:52:26.201Z,80.90
2019-01-20T15:54:58.779Z,80.90
2019-01-20T15:57:31.364Z,80.70
2019-01-20T16:00:04.192Z,81.30
2019-01-20T16:02:36.777Z,80.80
2019-01-20T16:05:09.606Z,80.90
2019-01-20T16:07:42.198Z,80.70
2019-01-20T16:10:16.219Z,80.20
2019-01-20T16:12:49.384Z,80.50
2019-01-20T16:15:25.268Z,81.00
2019-01-20T16:17:58.725Z,81.40
2019-01-20T16:20:33.174Z,81.50
2019-01-20T16:23:08.181Z,82.00
2019-01-20T16:25:41.184Z,81.70
2019-01-20T16:28:14.369Z,81.60
2019-01-20T16:30:46.954Z,80.90
2019-01-20T16:33:24.814Z,80.80
2019-01-20T16:35:53.632Z,80.90
2019-01-20T16:38:26.105Z,81.50
2019-01-20T16:40:58.587Z,81.60
2019-01-20T16:43:30.972Z,82.50
2019-01-20T16:46:03.450Z,81.80
2019-01-20T16:48:35.824Z,81.90
2019-01-20T16:51:08.312Z,82.10
2019-01-20T16:53:40.702Z,82.00
2019-01-20T16:56:13.413Z,81.90
2019-01-20T16:58:51.347Z,81.50
2019-01-20T17:01:21.507Z,81.30
2019-01-20T17:03:54.083Z,80.80
2019-01-20T17:06:26.562Z,81.20
2019-01-20T17:08:59.037Z,80.90
2019-01-20T17:11:31.523Z,80.70
2019-01-20T17:14:04.108Z,80.70
2019-01-20T17:16:36.586Z,80.90
2019-01-20T17:19:09.170Z,81.00
2019-01-20T17:21:41.551Z,81.00
2019-01-20T17:24:14.031Z,82.20
2019-01-20T17:26:46.608Z,81.20
2019-01-20T17:29:18.984Z,80.30
2019-01-20T17:31:51.361Z,80.70
2019-01-20T17:34:23.847Z,80.80
2019-01-20T17:36:56.416Z,80.80
2019-01-20T17:39:28.895Z,80.70
2019-01-20T17:42:01.286Z,80.10
2019-01-20T17:44:33.965Z,80.50
2019-01-20T17:47:06.543Z,80.00
2019-01-20T17:49:38.927Z,80.30
2019-01-20T17:52:11.544Z,81.30
2019-01-20T17:54:43.922Z,81.00
2019-01-20T17:57:16.298Z,81.10
2019-01-20T17:59:48.720Z,80.50
2019-01-20T18:02:21.095Z,80.10
2019-01-20T18:04:53.770Z,80.10
2019-01-20T18:07:26.247Z,79.60
2019-01-20T18:09:58.723Z,79.70
2019-01-20T18:12:31.048Z,79.20
2019-01-20T18:15:03.637Z,79.30
2019-01-20T18:17:35.974Z,79.90
2019-01-20T18:20:12.442Z,80.30
2019-01-20T18:22:45.300Z,80.10
2019-01-20T18:25:18.994Z,81.40
2019-01-20T18:27:51.681Z,81.70
2019-01-20T18:30:26.549Z,80.70
2019-01-20T18:32:59.219Z,80.50
2019-01-20T18:35:31.907Z,79.60
2019-01-20T18:38:04.579Z,80.30
2019-01-20T18:40:55.230Z,80.30
2019-01-20T18:44:06.658Z,80.40
2019-01-20T18:46:39.266Z,81.30
2019-01-20T18:49:11.746Z,81.70
2019-01-20T18:51:44.324Z,81.80
2019-01-20T18:54:16.855Z,81.00
2019-01-20T18:56:49.217Z,80.90
2019-01-20T18:59:21.647Z,81.40
2019-01-20T19:01:54.032Z,81.40
2019-01-20T19:04:26.463Z,81.10
2019-01-20T19:06:59.049Z,80.70
2019-01-20T19:09:31.710Z,80.90
2019-01-20T19:12:04.580Z,81.30
2019-01-20T19:14:37.027Z,81.70
2019-01-20T19:17:09.525Z,81.50
2019-01-20T19:19:41.946Z,81.30
2019-01-20T19:22:14.993Z,81.70
2019-01-20T19:24:47.454Z,80.30
2019-01-20T19:27:19.941Z,78.60
2019-01-20T19:29:52.269Z,79.40
2019-01-20T19:32:24.743Z,79.90
2019-01-20T19:34:57.271Z,79.00
2019-01-20T19:37:29.744Z,78.40
2019-01-20T19:40:02.196Z,77.80
2019-01-20T19:42:34.781Z,78.30
2019-01-20T19:45:10.478Z,78.90
2019-01-20T19:47:43.074Z,78.50
2019-01-20T19:50:16.303Z,77.80
2019-01-20T19:52:48.888Z,78.20
2019-01-20T19:55:33.954Z,78.00
2019-01-20T19:58:06.848Z,78.10
2019-01-20T20:00:39.472Z,78.40
2019-01-20T20:03:15.063Z,78.70
2019-01-20T20:05:47.749Z,78.40
2019-01-20T20:08:20.395Z,77.80
2019-01-20T20:10:52.974Z,77.60
2019-01-20T20:13:25.457Z,77.40
2019-01-20T20:15:57.787Z,78.00
2019-01-20T20:18:30.162Z,78.30
2019-01-20T20:21:02.486Z,78.30
2019-01-20T20:23:34.969Z,77.90
2019-01-20T20:26:07.655Z,77.70
2019-01-20T20:28:40.136Z,77.60
2019-01-20T20:31:12.614Z,76.50
2019-01-20T20:33:45.086Z,76.20
2019-01-20T20:36:17.563Z,76.90
2019-01-20T20:38:50.039Z,76.60
2019-01-20T20:41:22.517Z,76.60
2019-01-20T20:43:54.896Z,77.60
2019-01-20T20:46:30.706Z,77.70
2019-01-20T20:49:01.492Z,77.60
2019-01-20T20:51:33.965Z,77.70
2019-01-20T20:54:06.641Z,77.80
2019-01-20T20:56:39.180Z,77.80
2019-01-20T20:59:11.699Z,77.00
2019-01-20T21:01:44.271Z,77.10
2019-01-20T21:04:16.747Z,77.20
2019-01-20T21:06:49.217Z,76.90
2019-01-20T21:09:21.688Z,76.70
2019-01-20T21:11:54.074Z,76.60
2019-01-20T21:14:26.924Z,76.80
2019-01-20T21:16:59.530Z,76.20
2019-01-20T21:19:31.893Z,76.00
2019-01-20T21:22:04.274Z,76.20
2019-01-20T21:24:36.656Z,75.50
2019-01-20T21:27:09.336Z,75.60
2019-01-20T21:29:41.720Z,75.90
2019-01-20T21:32:14.194Z,76.40
2019-01-20T21:34:46.570Z,76.30
2019-01-20T21:37:19.055Z,76.40
2019-01-20T21:39:51.538Z,76.50
2019-01-20T21:42:23.913Z,76.70
2019-01-20T21:44:56.306Z,76.40
2019-01-20T21:47:28.691Z,76.10
2019-01-20T21:50:01.067Z,76.60
2019-01-20T21:52:33.450Z,76.30
2019-01-20T21:55:06.280Z,76.70
2019-01-20T21:57:38.910Z,76.70
2019-01-20T22:00:15.695Z,76.10
2019-01-20T22:02:48.378Z,75.80
2019-01-20T22:05:20.956Z,75.60
2019-01-20T22:07:53.529Z,75.70
2019-01-20T22:10:26.439Z,75.60
2019-01-20T22:12:58.911Z,76.30
2019-01-20T22:15:31.494Z,76.10
2019-01-20T22:18:03.967Z,76.30
2019-01-20T22:20:36.543Z,76.50
2019-01-20T22:23:09.218Z,76.80
2019-01-20T22:25:41.708Z,76.60
2019-01-20T22:28:14.089Z,75.70
2019-01-20T22:30:46.466Z,75.20
2019-01-20T22:33:18.859Z,74.80
2019-01-20T22:35:51.240Z,74.70
2019-01-20T22:38:23.725Z,75.10
2019-01-20T22:40:56.102Z,75.80
2019-01-20T22:43:28.478Z,75.50
2019-01-20T22:46:00.951Z,75.50
2019-01-20T22:48:33.325Z,75.10
2019-01-20T22:51:05.817Z,75.00
2019-01-20T22:53:38.301Z,75.60
2019-01-20T22:56:10.783Z,75.60
2019-01-20T22:58:43.167Z,74.90
2019-01-20T23:01:23.661Z,75.20
2019-01-20T23:03:56.045Z,75.30
2019-01-20T23:06:28.652Z,75.60
2019-01-20T23:09:06.541Z,76.10
2019-01-20T23:11:35.221Z,76.90
2019-01-20T23:14:08.084Z,75.50
2019-01-20T23:16:40.565Z,76.20
2019-01-20T23:19:13.147Z,76.10
2019-01-20T23:21:45.536Z,75.90
2019-01-20T23:24:17.908Z,76.00
2019-01-20T23:26:50.289Z,76.40
2019-01-20T23:29:22.670Z,75.50
2019-01-20T23:31:55.143Z,75.20
2019-01-20T23:34:27.620Z,75.30
2019-01-20T23:36:59.999Z,75.50
2019-01-20T23:39:32.369Z,75.80
2019-01-20T23:42:04.851Z,76.20
2019-01-20T23:44:37.327Z,76.80
2019-01-20T23:47:15.123Z,77.20
2019-01-20T23:49:43.905Z,77.10
2019-01-20T23:52:16.389Z,77.10
2019-01-20T23:54:48.767Z,77.30
2019-01-20T23:57:21.255Z,77.60
2019-01-20T23:59:53.732Z,78.10
